Date,TemperatureHighF,TemperatureAvgF,TemperatureLowF,DewpointHighF,DewpointAvgF,DewpointLowF,HumidityHigh,HumidityAvg,HumidityLow,PressureMaxIn,PressureMinIn,WindSpeedMaxMPH,WindSpeedAvgMPH,GustSpeedMaxMPH,PrecipitationSumIn
2013-1-5,73.0,50.4,47.8,46.2,43.0,39.4,86,78,38,29.94,29.91,2,0,2,0.02
2013-1-6,72.1,51.8,39.0,48.6,42.6,35.7,90,73,38,30.36,29.91,12,1,12,1.16
2013-1-7,64.0,48.6,36.0,48.1,42.1,33.7,94,79,55,30.34,30.10,8,1,8,0.00
2013-1-8,62.2,57.4,51.3,61.1,55.5,46.0,100,93,79,30.11,29.90,13,2,13,0.57
2013-1-9,67.3,63.3,60.6,65.8,62.5,59.8,99,97,93,30.12,29.81,18,4,18,1.10
2013-1-10,79.7,62.4,51.6,62.0,56.6,47.2,99,84,36,30.14,29.98,7,1,7,0.04
2013-1-11,79.3,59.7,44.4,70.1,54.6,43.3,99,85,48,30.09,29.91,8,2,8,0.00
2013-1-12,75.9,72.9,70.5,72.1,71.0,69.7,99,94,83,29.92,29.80,15,5,15,0.01
2013-1-13,72.0,51.5,43.7,70.0,47.5,39.3,96,86,75,30.12,29.87,11,3,11,0.31
2013-1-14,49.3,44.7,42.3,42.8,40.4,38.9,93,85,77,30.22,30.07,8,2,8,0.01
2013-1-15,43.6,39.8,36.9,38.9,37.1,34.2,93,90,83,30.16,30.02,9,2,9,0.02
2013-1-16,53.0,41.7,30.9,34.6,27.9,15.8,90,62,26,30.29,30.14,12,3,12,0.00
2013-1-17,62.3,44.1,28.2,38.3,29.1,22.3,89,61,24,30.47,30.28,8,1,8,0.00
2013-1-18,62.2,45.5,33.6,46.6,35.6,31.0,93,71,37,30.55,30.39,8,1,8,0.00
2013-1-19,74.8,52.7,35.2,54.8,44.9,32.5,94,77,40,30.39,29.79,8,2,8,0.00
2013-1-20,68.7,54.6,44.1,59.1,49.3,42.9,98,84,59,30.28,30.14,6,0,6,0.24
2013-1-21,69.6,56.5,44.8,57.5,48.7,43.2,97,77,50,30.25,30.14,4,0,4,0.00
2013-1-22,67.5,55.1,45.0,54.4,48.9,42.5,94,81,62,30.34,30.21,7,1,7,0.00
2013-1-23,74.7,60.2,50.0,62.8,56.0,48.9,98,87,59,30.37,30.25,5,0,5,0.06
2013-1-24,78.4,65.1,57.0,68.8,61.2,56.2,98,88,64,30.32,30.17,6,1,6,0.09
2013-1-25,79.7,66.7,58.1,68.6,61.6,57.0,99,85,58,30.21,30.08,8,1,8,0.00
2013-1-26,77.7,66.8,59.9,70.2,61.8,58.9,98,85,62,30.21,30.11,6,1,6,0.00
2013-1-27,76.3,68.0,60.1,69.5,64.5,59.0,97,89,77,30.16,30.05,5,1,5,0.00
2013-1-28,78.6,72.4,69.4,69.0,67.3,64.8,93,84,69,30.13,29.98,6,2,6,0.00
2013-1-29,74.8,72.3,59.9,71.2,69.4,56.2,94,90,83,29.98,29.64,21,2,21,0.15
2013-1-30,61.9,56.9,42.8,56.5,33.0,23.2,88,43,25,30.26,29.76,22,4,22,0.00
2013-1-31,67.1,51.1,36.0,40.4,31.7,23.1,80,52,19,30.35,30.23,7,0,7,0.00
2013-2-1,69.1,57.6,47.5,50.2,44.1,35.5,85,63,37,30.39,30.26,3,0,3,0.00
2013-2-2,73.4,60.8,49.3,59.5,53.0,46.8,94,77,50,30.28,30.17,6,1,6,0.00
2013-2-3,69.1,59.4,50.0,53.4,44.7,31.7,94,63,26,30.34,30.08,8,0,8,0.00
2013-2-4,73.4,64.6,56.7,64.3,58.2,49.2,92,80,72,30.08,29.84,2,0,2,0.00
2013-2-5,78.6,69.0,61.7,69.3,65.2,60.0,98,88,69,30.00,29.88,7,1,7,0.00
2013-2-6,66.2,63.6,61.3,64.3,62.3,59.1,99,96,90,30.06,29.86,9,2,9,0.66
2013-2-7,69.4,63.0,55.0,64.2,60.4,54.6,100,91,82,30.00,29.91,4,1,4,0.00
2013-2-8,69.3,61.8,55.4,61.0,54.4,50.3,96,77,60,30.18,30.00,8,2,8,0.00
2013-2-9,69.8,63.0,55.8,67.1,59.1,51.5,91,87,79,30.14,29.86,9,2,9,0.00
2013-2-10,73.8,68.3,61.5,72.0,65.4,54.7,95,90,72,29.98,29.76,6,2,6,0.08
2013-2-11,64.0,56.9,54.5,56.7,52.4,45.4,96,86,57,30.06,29.96,9,3,9,0.18
2013-2-12,68.2,60.5,55.9,67.1,58.1,52.3,99,92,81,30.00,29.81,7,2,7,0.01
2013-2-13,61.2,53.7,47.7,52.5,43.0,39.4,85,68,48,30.13,29.99,8,2,8,0.08
2013-2-14,64.0,52.0,38.3,48.1,39.8,29.1,93,66,28,30.18,30.06,5,1,5,0.00
2013-2-15,67.8,54.9,41.9,52.0,42.4,38.3,92,66,38,30.33,30.11,10,2,10,0.00
2013-2-16,61.7,51.1,40.3,38.5,28.3,22.0,70,43,24,30.46,30.27,8,2,8,0.00
2013-2-17,70.0,57.3,42.1,52.4,43.6,36.0,83,63,37,30.29,30.07,5,1,5,0.00
2013-2-18,83.7,67.7,55.9,72.0,60.0,51.4,88,77,63,30.13,29.88,9,2,9,0.24
2013-2-19,66.6,54.0,0.0,54.5,39.6,0.0,89,54,28,30.31,29.90,6,1,6,0.01
2013-2-20,62.8,58.1,0.0,60.6,55.5,0.0,93,88,86,29.93,29.83,10,3,10,0.23
2013-2-21,76.8,69.2,61.0,71.6,63.4,52.1,95,83,57,29.88,29.70,7,2,7,0.09
2013-2-22,70.2,62.2,56.1,54.4,48.1,0.0,80,61,39,29.99,29.86,9,2,9,0.00
2013-2-23,68.0,58.3,0.0,52.5,47.7,0.0,78,68,52,30.00,29.87,8,1,8,0.00
2013-2-24,67.5,59.3,47.8,59.0,52.7,43.2,89,79,65,29.94,29.67,19,4,19,0.01
2013-2-25,75.4,64.2,50.2,68.9,43.7,11.8,96,58,10,29.78,29.52,30,9,30,0.00
2013-2-26,65.5,54.4,45.7,35.6,31.6,28.6,56,43,26,29.95,29.78,23,6,27,0.00
2013-2-27,72.3,58.0,45.0,51.4,36.9,24.2,81,49,23,30.17,29.91,21,4,21,0.00
2013-2-28,57.6,50.5,44.1,30.7,25.4,21.7,59,38,25,30.29,30.16,18,3,18,0.00
2013-3-1,66.9,53.0,39.4,33.1,25.2,17.0,70,40,16,30.30,30.14,16,3,16,0.00
2013-3-2,57.2,49.4,40.3,29.6,22.0,12.6,56,36,18,30.33,29.92,16,4,16,0.00
2013-3-3,68.4,47.9,0.0,49.3,33.6,22.0,73,43,28,30.32,29.92,15,5,15,0.00
2013-3-4,77.9,67.2,56.8,61.3,56.4,49.3,83,69,50,30.03,29.80,27,12,27,0.00
2013-3-5,70.5,65.0,53.2,61.6,41.2,20.0,80,47,19,30.32,29.83,23,6,23,0.00
2013-3-6,66.0,54.8,44.4,39.5,23.2,7.5,57,31,10,30.43,30.24,32,4,32,0.00
2013-3-7,67.3,56.0,42.6,50.2,44.0,34.9,81,65,47,30.31,30.20,27,5,27,0.00
2013-3-8,69.6,62.3,55.8,59.3,56.3,49.2,89,81,68,30.23,30.09,22,7,22,0.00
2013-3-9,75.9,68.6,62.2,65.5,61.7,58.0,87,79,64,30.09,29.78,25,10,25,0.00
2013-3-10,69.6,64.1,55.6,65.6,54.9,37.1,89,74,47,30.06,29.74,25,5,25,0.30
2013-3-11,63.0,54.9,45.7,37.6,26.2,13.8,58,36,16,30.14,29.99,17,3,17,0.00
2013-3-12,68.2,54.3,39.2,41.3,32.1,20.0,74,47,17,30.26,30.09,14,2,14,0.00
2013-3-13,70.0,57.9,44.6,50.0,40.5,34.6,87,57,28,30.47,30.26,20,3,20,0.00
2013-3-14,73.2,59.6,46.0,56.9,44.8,38.0,90,62,30,30.44,30.30,14,4,14,0.00
2013-3-15,78.3,64.8,52.7,61.0,53.7,46.4,90,69,45,30.30,30.09,21,6,21,0.05
2013-3-16,78.3,67.8,57.7,63.4,58.8,54.1,90,74,56,30.09,29.87,21,8,21,0.00
2013-3-17,79.3,70.6,64.0,69.0,64.1,58.8,91,80,67,29.90,29.72,21,8,21,0.00
2013-3-18,86.2,74.7,69.1,70.6,67.1,64.4,92,78,53,29.90,29.73,12,5,12,0.00
2013-3-19,78.3,69.2,64.0,65.1,59.8,49.9,87,73,58,30.00,29.88,18,6,18,0.00
2013-3-20,75.7,65.9,57.4,63.3,50.1,37.6,86,60,27,30.18,29.94,33,7,33,0.09
2013-3-21,73.2,64.1,52.5,60.4,53.5,47.8,85,70,49,30.06,29.73,23,6,23,0.00
2013-3-22,81.7,73.3,67.3,70.2,66.8,60.2,91,81,67,29.75,29.68,18,6,18,0.00
2013-3-23,75.4,70.9,66.0,69.9,67.8,63.5,93,90,84,29.75,29.58,9,2,9,0.00
2013-3-24,67.8,59.8,50.9,65.7,41.5,25.4,94,56,26,30.14,29.64,15,4,15,0.00
2013-3-25,62.2,52.3,42.6,30.1,22.3,14.2,52,33,16,30.38,30.14,22,4,22,0.00
2013-3-26,63.3,52.8,41.9,26.2,19.9,11.4,44,29,14,30.50,30.32,17,3,17,0.00
2013-3-27,68.4,55.6,39.4,47.3,37.4,24.6,75,52,33,30.39,30.25,15,4,15,0.00
2013-3-28,73.9,65.5,59.9,57.5,53.8,47.3,79,66,55,30.28,30.20,16,5,16,0.00
2013-3-29,77.0,67.7,61.0,63.5,59.6,55.1,89,76,57,30.25,30.14,17,6,17,0.01
2013-3-30,78.4,70.2,64.4,66.0,62.8,60.3,88,78,61,30.16,29.97,15,6,15,0.00
2013-3-31,84.9,69.9,62.6,69.7,63.9,59.1,94,83,52,29.99,29.86,25,4,25,0.12
2013-4-1,77.2,68.1,60.8,68.6,62.7,58.3,94,84,66,30.09,29.94,14,4,14,0.00
2013-4-2,73.2,68.0,64.6,66.7,63.7,61.0,93,86,79,30.02,29.82,19,5,19,0.43
2013-4-3,67.8,60.0,0.0,62.5,58.6,50.0,93,85,73,30.09,29.81,16,4,16,0.04
2013-4-4,59.2,54.0,51.6,50.5,47.0,41.6,89,78,64,30.11,29.94,11,3,11,0.01
2013-4-5,71.2,58.3,45.5,51.3,45.4,40.0,82,63,42,30.18,29.91,14,3,14,0.00
2013-4-6,74.3,64.3,52.5,60.0,55.5,47.4,88,74,57,30.09,29.84,18,6,18,0.00
2013-4-7,79.7,70.2,62.8,65.6,61.7,59.1,91,75,57,30.03,29.87,18,6,18,0.05
2013-4-8,79.5,72.2,65.5,69.7,66.4,62.5,95,83,67,29.89,29.79,21,8,21,0.08
2013-4-9,82.4,74.5,67.6,72.3,69.4,63.9,90,84,74,29.82,29.72,25,10,25,0.00
2013-4-10,81.7,68.8,50.5,73.6,64.9,49.1,95,88,71,29.84,29.72,30,9,30,0.22
2013-4-11,69.3,54.9,44.1,50.6,47.2,41.8,96,78,46,29.93,29.77,23,3,23,0.89
2013-4-12,77.9,62.0,47.3,57.2,48.8,40.6,92,66,29,30.03,29.87,12,2,12,0.00
2013-4-13,77.4,64.8,51.3,62.3,55.7,48.7,94,74,50,29.98,29.81,21,5,21,0.00
2013-4-14,79.5,70.5,60.4,68.2,64.1,57.8,94,81,68,29.82,29.69,14,4,14,0.00
2013-4-15,80.1,72.0,0.0,71.3,68.7,48.8,93,89,53,30.25,29.75,13,6,13,1.24
2013-4-16,83.5,75.5,72.1,73.6,71.9,68.6,95,89,75,29.96,29.83,17,6,17,0.00
2013-4-17,77.9,75.5,73.9,73.6,72.1,69.1,92,89,86,29.94,29.77,21,9,21,0.00
2013-4-18,77.4,67.5,52.3,73.4,63.5,44.3,92,87,74,30.04,29.71,20,8,20,0.17
2013-4-19,67.3,56.3,49.1,46.4,34.6,25.2,74,47,21,30.25,30.03,24,5,24,0.01
2013-4-20,68.9,56.6,41.0,48.4,41.3,33.8,83,58,39,30.26,30.10,22,4,22,0.00
2013-4-21,71.8,64.4,55.9,57.2,53.5,47.7,81,68,56,30.17,30.06,18,4,18,0.00
2013-4-22,77.0,66.3,55.4,64.7,58.5,52.4,94,77,59,30.12,29.96,17,4,17,0.00
2013-4-23,81.5,72.4,62.8,70.9,65.3,59.3,94,79,63,29.98,29.88,18,5,18,0.04
2013-4-24,72.3,61.8,50.9,70.2,51.7,46.0,94,71,51,30.21,29.96,21,6,21,0.06
2013-4-25,70.9,64.0,57.9,60.9,51.5,43.7,79,64,49,30.31,30.18,24,7,24,0.00
2013-4-26,82.6,73.6,67.1,70.7,67.0,60.9,90,80,67,30.22,30.08,17,7,17,0.00
2013-4-27,79.7,67.8,0.0,74.0,68.8,63.3,95,85,81,30.13,29.77,14,4,14,1.07
2013-4-28,81.7,72.2,64.6,68.1,65.2,62.9,97,80,56,30.04,29.88,17,4,17,0.37
2013-4-29,80.6,73.2,66.7,73.1,67.7,64.8,96,84,66,29.93,29.82,16,4,16,0.00
2013-4-30,82.9,67.7,0.0,69.1,67.0,64.2,92,70,60,29.97,29.77,14,4,14,0.14
2013-5-1,82.8,74.9,66.0,75.0,68.1,63.6,97,80,64,29.91,29.82,12,3,12,0.00
2013-5-2,78.3,68.8,52.9,70.1,61.0,42.0,93,77,63,30.19,29.90,20,5,20,0.00
2013-5-3,68.0,57.6,48.9,44.1,35.8,26.9,72,48,22,30.20,30.06,22,5,22,0.00
2013-5-4,80.4,64.4,45.1,50.8,41.2,34.9,75,47,22,30.12,29.88,16,4,16,0.00
2013-5-5,72.3,64.7,55.2,51.7,45.6,40.9,76,52,34,30.11,29.98,15,3,15,0.00
2013-5-6,78.3,65.4,49.6,57.9,49.8,43.7,86,60,39,30.13,30.00,11,2,11,0.00
2013-5-7,83.7,71.6,57.9,61.5,57.0,54.0,89,63,38,30.10,29.99,16,4,16,0.00
2013-5-8,83.7,72.8,61.9,68.8,62.8,58.0,91,72,52,30.09,29.99,17,5,17,0.00
2013-5-9,80.6,75.0,70.7,74.7,69.8,65.3,92,84,76,30.03,29.89,17,7,17,0.01
2013-5-10,79.9,55.1,0.0,73.4,69.0,65.2,95,69,78,30.07,29.88,17,4,17,0.86
2013-5-11,95.0,73.3,62.6,81.5,67.0,50.0,98,82,55,30.04,29.84,9,2,9,0.04
2013-5-12,81.0,62.3,0.0,65.8,59.8,53.2,80,53,46,30.09,29.84,14,4,14,0.00
2013-5-13,79.7,69.0,62.2,60.0,56.2,52.4,78,65,45,30.05,29.92,15,3,15,0.04
2013-5-14,84.0,73.1,62.4,71.3,63.6,59.0,94,74,52,30.15,29.89,15,5,15,0.02
2013-5-15,79.9,73.1,69.4,72.2,67.5,63.7,92,83,68,30.16,29.94,17,7,17,0.08
2013-5-16,83.7,76.6,71.8,73.3,70.4,66.7,90,81,69,29.96,29.83,21,7,21,0.00
2013-5-17,85.3,78.9,73.4,75.7,72.8,69.7,92,82,67,29.99,29.85,13,6,13,0.01
2013-5-18,90.3,80.7,75.4,75.6,72.1,67.7,90,76,56,30.00,29.93,17,8,17,0.01
2013-5-19,91.0,80.9,75.6,75.7,72.5,69.2,88,76,57,29.95,29.86,18,9,18,0.00
2013-5-20,88.7,81.2,77.4,76.4,73.8,70.6,89,79,64,29.94,29.82,21,9,21,0.00
2013-5-21,90.0,81.3,74.8,77.3,74.4,70.9,92,80,65,29.90,29.76,18,8,18,0.00
2013-5-22,86.0,76.8,72.7,76.8,72.8,69.9,94,88,70,30.01,29.83,14,5,14,0.02
2013-5-23,89.4,81.5,74.7,78.3,74.3,70.9,94,79,62,30.15,29.98,14,4,14,0.00
2013-5-24,90.0,81.3,76.5,77.4,74.2,71.4,93,80,63,30.22,30.07,14,5,14,0.00
2013-5-25,86.0,79.8,75.0,75.5,72.8,70.3,92,80,64,30.18,30.08,14,4,14,0.00
2013-5-26,89.2,81.1,76.3,76.2,72.1,68.1,90,75,58,30.14,30.04,15,6,15,0.00
2013-5-27,90.9,81.0,72.5,76.1,71.7,68.1,86,74,61,30.08,29.96,17,7,17,0.00
2013-5-28,88.9,82.1,76.5,74.4,71.7,68.2,82,71,57,30.00,29.90,19,9,19,0.00
2013-5-29,86.5,80.5,77.4,75.5,73.1,70.5,88,78,68,29.93,29.83,18,8,18,0.04
2013-5-30,89.1,82.2,77.0,78.0,75.1,72.2,89,80,67,29.92,29.84,20,8,20,0.00
2013-5-31,95.0,84.1,77.5,79.5,76.1,73.8,91,78,59,29.94,29.86,18,8,18,0.00
2013-6-1,92.7,84.3,79.2,78.8,75.9,73.4,89,77,61,29.93,29.86,19,7,19,0.00
2013-6-2,84.6,78.0,70.0,76.8,71.7,67.2,94,82,62,30.06,29.89,14,3,14,0.37
2013-6-3,87.8,79.5,68.4,73.6,68.2,62.9,94,71,47,29.99,29.85,14,3,14,0.00
2013-6-4,92.3,81.4,70.7,76.6,71.4,67.3,94,73,48,29.94,29.84,14,3,14,0.00
2013-6-5,92.8,83.0,72.5,78.6,73.8,70.6,95,75,55,29.91,29.78,17,3,17,0.00
2013-6-6,94.3,82.2,70.9,79.1,73.8,65.8,94,77,54,29.90,29.74,29,3,29,0.61
2013-6-7,86.7,78.9,69.3,72.2,68.4,63.3,94,72,53,29.96,29.86,11,2,11,0.01
2013-6-8,89.1,77.5,70.3,74.7,69.4,62.9,92,77,58,29.95,29.85,25,2,25,0.72
2013-6-9,89.2,76.8,72.3,80.7,72.9,69.0,95,88,65,29.98,29.86,17,2,17,0.20
2013-6-10,91.4,80.1,70.9,81.2,75.0,69.7,98,85,68,30.01,29.95,15,2,15,0.04
2013-6-11,93.2,84.2,77.2,81.2,76.5,73.6,93,79,63,30.08,30.00,14,4,14,0.00
2013-6-12,93.6,84.8,78.3,79.7,76.7,72.2,90,77,61,30.10,30.00,13,5,13,0.00
2013-6-13,91.6,83.8,76.6,80.2,76.7,73.9,94,80,62,30.09,29.94,14,3,14,0.01
2013-6-14,93.9,84.6,75.9,80.0,76.2,74.3,96,77,56,30.00,29.90,11,2,11,0.00
2013-6-15,92.8,85.2,77.9,78.5,75.1,72.8,91,73,54,30.02,29.92,13,3,13,0.00
2013-6-16,94.6,84.8,75.2,79.6,75.5,72.8,93,75,53,30.05,29.95,15,4,15,0.00
2013-6-17,93.9,85.0,75.9,79.3,75.6,71.7,93,75,50,30.03,29.91,17,5,17,0.06
2013-6-18,94.3,83.5,75.9,78.2,74.4,69.5,91,75,53,30.02,29.89,24,4,24,0.00
2013-6-19,92.8,83.2,76.8,78.5,75.1,70.3,91,77,55,30.02,29.94,22,4,24,0.06
2013-6-20,96.4,85.9,77.5,80.9,75.5,72.8,92,73,50,30.11,29.99,14,5,14,0.01
2013-6-21,95.9,86.3,77.4,79.9,74.7,69.2,92,70,50,30.13,30.04,17,4,17,0.00
2013-6-22,96.8,86.1,77.9,80.3,73.3,65.3,89,68,43,30.09,29.97,12,4,12,0.00
2013-6-23,97.0,85.9,78.1,79.2,74.1,71.9,87,69,46,30.04,29.96,15,5,15,0.00
2013-6-24,98.4,86.8,78.4,79.1,74.3,69.7,86,68,49,30.09,30.00,17,6,17,0.00
2013-6-25,96.1,86.5,80.4,79.5,76.0,73.6,84,72,56,30.06,29.97,21,6,21,0.01
2013-6-26,95.9,86.7,79.5,79.1,74.9,70.9,87,70,47,30.03,29.95,13,5,17,0.00
2013-6-27,95.0,85.9,76.6,78.1,74.3,70.2,90,70,45,30.06,29.94,15,4,15,0.00
2013-6-28,96.8,85.8,76.5,77.3,73.4,68.1,90,69,40,30.02,29.82,13,3,13,0.00
2013-6-29,100.9,88.4,78.1,77.3,73.7,66.2,90,65,33,29.88,29.71,14,4,14,0.01
2013-6-30,98.4,89.2,78.4,73.7,64.1,54.6,77,47,24,29.88,29.77,11,2,11,0.00
2013-7-1,91.4,84.3,74.5,67.0,60.3,56.3,63,45,33,29.97,29.85,14,4,18,0.00
2013-7-2,93.6,83.2,71.4,69.7,64.4,58.4,76,55,36,30.03,29.93,13,3,13,0.00
2013-7-3,94.3,83.1,72.9,70.6,66.3,59.3,81,59,34,30.05,29.93,14,3,14,0.00
2013-7-4,93.0,83.2,73.4,72.8,68.3,61.5,83,63,38,30.00,29.91,16,3,16,0.00
2013-7-5,95.5,84.9,74.1,77.1,71.4,66.6,88,66,44,29.99,29.88,14,3,14,0.00
2013-7-6,95.7,85.3,77.5,78.5,74.4,71.4,87,71,53,29.96,29.87,17,4,17,0.01
2013-7-7,91.4,83.6,78.8,79.8,74.8,71.1,87,75,60,30.04,29.92,18,5,18,0.04
2013-7-8,91.9,82.5,77.7,80.0,75.4,72.2,87,79,67,30.18,30.02,11,3,11,0.18
2013-7-9,95.5,86.2,77.4,81.9,76.2,73.1,94,74,56,30.17,30.06,17,4,17,0.00
2013-7-10,95.2,85.7,77.2,79.0,75.0,72.1,92,72,48,30.12,29.98,14,4,14,0.01
2013-7-11,95.9,85.3,75.0,78.1,73.7,68.3,94,70,43,30.04,29.92,14,3,14,0.00
2013-7-12,95.4,86.2,78.3,76.9,74.3,71.6,88,69,51,29.99,29.90,14,3,14,0.00
2013-7-13,97.3,84.9,75.6,77.2,72.6,69.4,88,68,42,30.00,29.86,13,2,13,0.00
2013-7-14,90.1,84.2,78.1,78.0,74.5,71.0,89,73,55,29.99,29.89,14,3,14,0.00
2013-7-15,86.4,79.4,72.5,78.0,74.7,68.1,94,85,75,30.08,29.92,24,3,24,1.17
2013-7-16,88.5,78.8,74.5,79.7,75.4,71.9,97,90,73,30.13,30.03,17,4,17,1.10
2013-7-17,84.4,77.9,74.5,78.7,76.0,73.4,99,94,82,30.21,30.11,14,3,14,0.18
2013-7-18,91.0,83.3,75.0,81.0,74.1,65.5,98,76,47,30.17,30.01,14,4,14,0.00
2013-7-19,86.9,78.9,73.4,79.3,74.7,69.2,94,87,74,30.08,29.96,13,2,13,0.33
2013-7-20,89.1,80.2,75.6,81.6,76.2,73.4,97,88,75,30.01,29.89,12,3,12,0.15
2013-7-21,85.6,79.9,73.9,78.6,75.7,72.2,97,87,74,30.03,29.94,18,4,18,0.63
2013-7-22,93.4,84.9,78.8,82.1,78.0,75.7,95,81,64,30.05,29.98,17,6,17,0.00
2013-7-23,93.6,84.9,77.7,79.6,76.0,72.0,94,76,55,30.06,29.95,14,4,14,0.00
2013-7-24,92.7,84.6,75.6,78.6,75.5,73.3,94,75,58,30.03,29.89,13,3,13,0.00
2013-7-25,93.4,84.4,76.5,78.2,75.6,72.6,92,76,55,30.06,29.97,13,3,13,0.00
2013-7-26,94.3,85.0,76.8,80.7,76.5,73.2,95,77,52,30.07,29.93,17,4,17,0.00
2013-7-27,93.7,82.3,75.9,80.1,76.5,72.7,95,83,56,29.99,29.87,13,2,13,0.51
2013-7-28,92.5,84.1,78.1,80.7,77.2,74.3,96,80,59,30.00,29.92,17,4,17,0.00
2013-7-29,93.2,85.3,79.3,80.6,76.1,72.4,90,75,58,30.11,29.99,15,6,15,0.00
2013-7-30,93.9,84.2,76.8,79.8,76.0,19.1,92,77,60,30.15,30.06,17,5,17,0.00
2013-7-31,93.2,84.0,74.3,79.4,75.4,72.3,95,77,54,30.13,29.97,14,3,14,0.00
2013-8-1,94.6,85.1,77.0,79.8,75.8,73.0,94,75,53,30.06,29.93,12,3,12,0.00
2013-8-2,92.1,84.9,77.0,79.1,76.2,73.5,93,76,59,30.02,29.93,14,3,14,0.00
2013-8-3,93.9,85.6,77.0,80.1,76.7,74.1,91,76,60,30.06,29.99,12,4,13,0.00
2013-8-4,95.4,85.5,78.6,81.4,77.3,74.0,93,77,60,30.10,29.99,14,4,14,0.02
2013-8-5,95.7,86.1,78.8,79.8,76.2,22.3,92,74,10,30.08,29.95,21,5,21,0.00
2013-8-6,96.4,86.4,78.4,81.2,76.7,72.8,92,75,48,30.01,29.90,72,5,72,0.00
2013-8-7,96.8,86.2,79.5,80.0,76.7,73.1,91,75,47,29.98,29.87,19,5,19,0.00
2013-8-8,95.5,85.0,76.1,80.5,76.1,72.9,95,76,54,29.97,29.87,15,4,15,0.00
2013-8-9,94.8,86.4,76.3,80.2,76.6,73.5,94,74,56,29.99,29.90,13,3,13,0.00
2013-8-10,91.6,83.6,77.7,80.1,77.3,73.6,95,82,59,30.07,29.97,11,3,11,0.74
2013-8-11,88.7,83.3,78.8,81.5,77.4,75.5,93,83,71,30.09,30.01,12,3,12,0.32
2013-8-12,93.2,84.6,76.5,80.2,76.8,74.0,94,78,64,30.10,29.99,14,4,14,0.04
2013-8-13,96.3,86.2,79.3,80.7,77.0,72.9,93,75,49,30.07,29.91,16,4,16,0.00
2013-8-14,95.7,83.7,74.5,79.8,75.4,69.7,94,78,46,30.02,29.89,27,3,27,0.53
2013-8-15,85.5,79.2,75.6,78.3,75.7,70.9,98,89,65,30.04,29.94,11,2,11,0.08
2013-8-16,89.8,82.1,77.0,78.2,75.0,70.9,93,80,56,30.02,29.90,13,2,13,0.05
2013-8-17,91.6,81.7,73.0,75.7,69.9,64.2,95,70,44,30.03,29.92,17,4,17,0.00
2013-8-18,89.8,81.1,72.3,74.7,70.3,66.7,84,71,56,30.05,29.97,14,3,14,0.00
2013-8-19,89.6,81.9,72.9,77.0,71.3,68.5,92,72,52,30.07,29.95,15,3,15,0.00
2013-8-20,86.5,80.3,74.7,78.1,73.5,71.6,92,80,69,30.07,29.97,12,2,12,0.00
2013-8-21,92.7,83.2,76.5,80.9,75.5,72.5,95,78,55,30.09,30.01,17,3,17,0.05
2013-8-22,91.9,84.6,78.1,80.7,76.3,73.6,94,77,60,30.08,29.96,13,3,13,0.00
2013-8-23,93.4,85.0,76.8,80.3,75.3,71.6,94,74,52,30.03,29.90,17,3,17,0.00
2013-8-24,91.8,85.2,78.6,79.9,75.6,72.0,91,74,55,30.04,29.94,21,4,21,0.00
2013-8-25,85.3,80.2,77.0,77.7,76.2,71.3,95,88,65,30.11,29.85,21,6,21,0.25
2013-8-26,82.6,77.8,74.8,78.0,75.1,73.2,97,91,78,30.16,30.06,13,3,13,0.17
2013-8-27,89.6,82.0,76.5,80.5,75.4,70.6,96,81,56,30.14,30.05,13,3,13,0.00
2013-8-28,92.7,83.4,74.8,78.8,73.4,67.5,94,74,47,30.11,30.00,11,3,11,0.00
2013-8-29,95.7,84.8,77.0,77.7,74.8,69.6,90,73,44,30.10,29.95,13,3,13,0.00
2013-8-30,92.7,84.6,78.3,79.8,75.6,71.8,92,75,56,30.05,29.93,14,3,14,0.00
2013-8-31,93.4,83.5,75.2,77.0,74.1,70.6,93,74,57,30.00,29.86,12,3,12,0.00
2013-9-1,93.9,83.6,73.8,78.8,74.0,71.3,94,74,52,29.96,29.85,16,3,16,0.00
2013-9-2,94.6,82.5,76.3,79.5,75.7,71.4,94,81,51,30.00,29.87,17,2,17,0.80
2013-9-3,94.1,83.1,75.2,79.8,76.3,73.8,98,81,52,30.02,29.89,11,2,11,0.00
2013-9-4,90.0,83.4,77.0,79.4,75.7,71.4,94,78,55,30.08,29.95,11,2,11,0.00
2013-9-5,91.8,84.0,77.5,80.7,76.5,73.4,95,79,59,30.10,30.02,16,3,16,0.02
2013-9-6,87.6,82.8,77.7,79.6,76.2,74.7,93,81,68,30.11,29.99,17,4,17,0.00
2013-9-7,87.8,80.8,76.6,79.2,75.8,73.2,94,85,70,30.06,29.94,17,2,17,0.06
2013-9-8,90.0,81.3,76.8,80.2,75.5,72.7,96,83,67,30.00,29.93,14,3,14,0.00
2013-9-9,90.1,82.1,75.9,77.9,74.6,72.6,93,79,60,30.02,29.94,19,4,19,0.00
2013-9-10,87.4,80.7,73.4,79.1,75.6,70.5,99,85,71,30.09,29.99,19,4,19,0.48
2013-9-11,89.6,82.8,76.1,78.9,74.9,69.6,93,78,59,30.11,30.01,20,4,20,0.00
2013-9-12,90.3,82.9,76.1,82.8,73.2,67.8,95,74,50,30.06,29.93,18,4,18,0.00
2013-9-13,95.0,83.1,73.9,76.8,71.9,-18.3,92,71,44,29.96,29.82,114,3,114,0.00
2013-9-14,90.1,83.1,75.6,78.1,74.6,71.7,93,76,57,29.95,29.86,20,4,20,0.00
2013-9-15,89.6,84.0,78.4,79.0,76.1,73.1,92,77,63,30.02,29.92,17,5,17,0.00
2013-9-16,90.3,84.7,81.7,78.8,76.3,72.7,82,76,64,30.05,29.97,18,5,18,0.00
2013-9-17,89.6,84.2,78.4,80.0,76.3,40.8,92,78,26,30.07,29.90,14,5,14,8.19
2013-9-18,91.8,83.1,77.0,80.1,76.2,73.2,96,81,62,29.97,29.87,19,4,19,0.00
2013-9-19,90.1,82.7,77.5,79.9,77.2,74.7,95,84,66,29.92,29.82,17,4,17,0.17
2013-9-20,85.3,80.1,74.5,82.4,78.5,73.3,99,95,87,29.86,29.69,19,4,19,0.30
2013-9-21,76.8,73.8,71.4,74.6,71.7,68.5,99,93,80,29.79,29.70,18,5,18,1.50
2013-9-22,82.2,76.2,69.3,69.0,64.4,59.7,83,67,51,29.80,29.70,21,7,21,0.00
2013-9-23,87.3,79.3,71.1,75.7,68.8,59.7,86,70,61,29.77,29.69,17,5,17,0.00
2013-9-24,91.9,83.0,76.6,79.7,74.4,67.2,94,77,49,29.82,29.73,14,2,14,0.00
2013-9-25,92.1,81.1,69.8,76.4,69.3,62.4,95,70,40,29.84,29.74,9,2,9,0.00
2013-9-26,90.5,79.9,68.7,76.8,69.3,63.1,96,72,45,29.88,29.79,26,3,26,0.00
2013-9-27,87.1,81.2,74.5,78.5,74.2,70.3,90,80,71,29.92,29.85,17,4,17,0.00
2013-9-28,87.4,82.0,78.4,79.0,76.0,73.4,89,82,74,29.96,29.88,14,5,14,0.11
2013-9-29,86.0,79.9,77.7,78.7,75.9,73.8,92,87,76,29.94,29.86,13,4,13,0.15
2013-9-30,85.1,78.8,74.8,79.3,76.3,73.7,98,92,80,29.88,29.79,9,2,9,0.21
2013-10-1,84.9,79.3,76.3,78.7,75.4,73.1,97,88,76,29.93,29.81,14,3,14,0.00
2013-10-2,85.6,78.7,73.6,79.1,75.9,71.3,96,91,79,29.95,29.85,19,3,19,1.62
2013-10-3,87.6,79.9,73.8,80.8,75.3,72.7,99,87,69,29.92,29.84,12,3,12,0.00
2013-10-4,89.2,80.5,72.1,79.2,74.9,70.5,97,83,63,29.92,29.85,12,3,12,0.00
2013-10-5,89.1,81.8,74.8,80.5,76.1,67.2,97,83,69,29.90,29.80,10,2,10,0.00
2013-10-6,78.1,67.8,61.3,66.8,53.1,44.2,82,61,32,30.06,29.91,17,3,17,0.01
2013-10-7,79.0,66.3,53.4,52.3,48.2,42.7,75,54,33,30.10,29.99,14,2,14,0.00
2013-10-8,79.5,67.0,54.0,62.5,54.5,50.8,90,67,41,30.07,29.96,9,2,9,0.00
2013-10-9,80.1,70.0,58.5,68.3,62.1,56.0,95,77,58,30.05,29.96,14,2,14,0.00
2013-10-10,84.4,74.8,63.5,71.3,66.3,60.8,94,76,61,30.03,29.89,11,2,11,4.05
2013-10-11,86.7,78.1,67.6,75.3,71.3,65.3,95,80,65,29.93,29.84,13,4,13,0.25
2013-10-12,97.3,77.9,0.0,87.4,75.9,48.4,99,93,65,30.03,29.84,24,3,24,1.47
2013-10-13,139.1,75.3,-38.0,99.9,67.2,-38.6,99,79,50,30.08,29.72,11,1,11,8.10
2013-10-14,79.5,75.3,72.5,72.2,63.9,58.2,88,68,59,30.02,29.76,8,1,8,0.01
2013-10-15,85.1,77.6,72.1,77.4,72.9,69.9,97,86,72,30.00,29.90,13,3,13,0.14
2013-10-16,80.1,72.9,65.7,74.0,69.4,62.0,96,89,80,30.01,29.89,9,2,9,0.00
2013-10-17,75.9,67.9,63.0,64.1,61.1,57.2,93,79,59,30.09,29.97,11,3,11,0.00
2013-10-18,75.0,67.0,60.4,65.4,61.9,56.1,94,84,69,30.02,29.88,19,5,19,0.27
2013-10-19,73.0,63.8,53.6,64.6,56.5,47.2,97,79,50,30.11,29.95,14,3,14,0.17
2013-10-20,72.0,61.9,48.2,62.7,55.8,45.4,94,81,72,30.11,29.95,13,3,13,0.00
2013-10-21,72.0,68.8,64.6,68.5,65.7,61.5,96,90,86,30.02,29.92,9,2,9,0.15
2013-10-22,73.9,66.7,56.8,66.4,60.8,52.3,95,82,53,30.11,29.97,12,2,12,0.00
2013-10-23,79.3,64.8,51.6,57.4,52.6,48.4,94,68,35,30.18,30.08,8,1,8,0.00
2013-10-24,80.4,67.4,54.7,62.1,55.5,49.2,94,69,34,30.24,30.12,6,1,6,0.00
2013-10-25,72.9,65.5,58.3,60.4,58.1,54.9,94,78,61,30.37,30.22,18,4,18,0.00
2013-10-26,80.8,68.9,60.8,67.3,61.1,54.8,91,77,61,30.27,30.11,13,3,15,0.00
2013-10-27,74.5,67.3,0.0,68.9,65.2,60.7,97,91,82,30.14,29.92,8,1,16,1.03
2013-10-28,83.8,72.0,63.1,74.7,68.3,62.0,99,89,71,30.15,30.04,8,2,16,0.00
2013-10-29,84.9,76.0,69.3,74.1,70.2,65.3,94,83,68,30.15,30.07,9,2,17,0.00
2013-10-30,84.4,77.1,74.3,78.8,74.4,70.9,96,91,86,30.11,29.90,12,4,23,0.72
2013-10-31,79.0,42.5,0.0,77.5,74.1,61.3,99,58,96,29.93,29.78,11,2,19,5.20
2013-11-1,79.0,66.8,54.7,67.5,62.0,54.4,99,86,59,29.99,29.86,6,1,11,0.20
2013-11-2,72.0,64.2,57.2,65.2,48.8,38.1,94,61,33,30.26,29.98,14,2,20,0.00
2013-11-3,69.8,59.2,47.3,55.6,49.7,41.5,89,71,56,30.26,30.12,21,4,21,0.00
2013-11-4,74.3,67.6,58.5,67.6,62.9,51.6,93,85,74,30.13,30.05,19,5,19,0.07
2013-11-5,82.4,75.0,70.9,71.7,69.3,65.7,94,83,71,30.08,30.00,17,5,17,0.00
2013-11-6,82.6,71.6,56.7,76.5,66.4,49.0,99,84,65,30.29,30.02,14,2,14,0.00
2013-11-7,66.9,55.9,34.2,49.0,41.7,21.0,79,60,43,30.42,30.27,9,2,21,0.00
2013-11-8,65.5,58.1,51.6,49.3,44.0,40.0,80,61,41,30.41,30.22,9,2,24,0.00
2013-11-9,70.0,62.0,52.9,59.2,54.6,47.6,87,77,66,30.26,30.18,7,1,15,0.00
2013-11-10,73.4,63.5,55.0,58.1,55.1,50.8,88,75,49,30.33,30.21,6,1,12,0.00
2013-11-11,76.3,63.3,53.6,59.8,56.0,51.3,93,78,59,30.30,30.17,4,0,10,0.00
2013-11-12,74.7,60.4,48.6,58.0,52.9,36.1,92,77,57,30.60,30.25,11,3,30,0.00
2013-11-13,55.9,46.1,37.9,36.3,30.5,24.5,73,55,37,30.66,30.45,11,3,33,0.00
2013-11-14,62.2,52.5,41.5,52.4,44.3,33.0,79,74,68,30.45,30.11,6,1,14,0.00
2013-11-15,73.8,65.3,56.8,67.1,60.9,49.7,95,86,77,30.11,29.95,5,2,11,0.00
2013-11-16,79.9,72.1,63.1,76.3,70.2,62.2,99,94,85,29.99,29.85,9,3,17,0.00
2013-11-17,85.5,77.6,73.4,77.2,74.1,72.2,98,89,75,29.98,29.83,9,2,17,0.00
2013-11-18,84.4,73.7,66.7,75.7,70.1,44.3,99,90,47,30.08,29.77,8,2,20,8.19
2013-11-19,67.3,62.9,59.7,52.0,47.8,42.6,71,58,47,29.99,29.88,10,3,21,0.00
2013-11-20,73.0,64.6,23.9,67.7,57.5,20.9,94,78,56,29.89,29.78,113,3,113,0.00
2013-11-21,84.4,73.4,69.4,72.1,69.5,12.6,94,89,10,29.92,29.81,50,4,50,8.19
2013-11-22,84.4,84.1,79.2,78.3,71.9,71.3,96,67,65,30.06,29.77,6,6,11,0.25
2013-11-23,84.4,61.7,52.2,99.9,56.9,49.9,98,83,4,30.36,29.55,6,0,122,7.51
2013-11-24,84.4,52.6,0.0,56.9,42.0,31.6,83,67,42,30.39,29.45,11,2,21,0.00
2013-11-25,84.4,45.2,39.0,78.0,40.0,32.2,97,83,57,30.33,29.80,8,2,17,1.30
2013-11-26,45.0,42.1,38.8,41.9,39.9,36.7,97,92,83,30.29,29.88,8,2,17,0.55
2013-11-27,50.7,41.8,35.6,38.9,32.4,28.2,85,70,45,30.46,30.29,6,1,17,0.00
2013-11-28,52.9,45.5,34.0,43.2,38.8,30.3,92,78,68,30.51,30.39,8,3,14,0.00
2013-11-29,51.8,51.8,51.8,42.7,42.7,42.7,71,71,71,30.54,30.42,5,5,13,0.00
2013-11-30,51.8,51.8,51.8,42.7,42.7,42.7,71,71,71,30.42,30.26,5,5,13,0.00
2013-12-1,51.8,51.8,51.8,42.7,42.7,42.7,71,71,71,30.28,30.28,5,5,13,0.00
2013-12-2,84.4,52.6,51.8,71.3,43.4,42.7,71,71,65,30.28,29.91,6,5,13,8.19
2013-12-3,95.7,83.5,74.5,79.7,75.3,70.3,95,79,47,30.16,30.03,8,1,15,0.53
2013-12-4,84.4,78.2,52.2,99.9,75.2,49.9,98,79,4,30.27,29.92,6,2,11,0.07
2013-12-5,84.4,84.4,84.4,71.3,71.3,71.3,65,65,65,30.17,29.96,6,6,11,0.00
2013-12-6,84.4,49.1,36.3,71.3,44.0,33.7,94,84,65,30.52,30.13,9,3,21,0.00
2013-12-7,39.7,36.2,33.4,34.9,32.8,30.3,90,87,85,30.52,30.34,8,3,20,0.00
2013-12-8,0.0,0.0,0.0,32.2,32.2,32.2,0,0,100,29.77,29.58,0,0,0,0.00
2013-12-9,84.4,23.1,0.0,77.2,43.2,32.2,81,19,65,30.06,29.57,6,1,11,8.19
2013-12-10,84.4,36.0,35.1,71.3,32.4,31.2,91,87,65,30.23,30.06,6,2,14,0.00
2013-12-11,84.4,48.7,35.1,71.3,42.5,31.6,87,81,65,30.22,29.45,6,3,11,8.19
2013-12-12,84.4,84.4,84.4,71.3,71.3,71.3,65,65,65,30.07,29.88,6,6,11,0.00
2013-12-13,84.4,47.0,0.0,71.3,71.3,71.3,65,13,10,29.88,29.39,6,3,11,0.00
2013-12-14,0.0,0.0,0.0,71.3,71.3,71.3,0,0,100,29.80,29.38,0,0,0,0.00
2013-12-15,84.4,34.2,0.0,99.9,46.7,31.2,96,43,4,30.38,29.49,7,1,127,0.00
2013-12-16,62.6,46.4,32.7,43.8,36.6,29.9,92,72,36,30.37,30.25,6,1,13,0.00
2013-12-17,68.9,52.3,37.4,53.0,43.9,34.8,94,76,38,30.36,30.24,5,1,10,0.00
2013-12-18,67.1,55.2,42.1,57.3,50.1,39.9,95,83,68,30.33,30.12,8,1,16,0.00
2013-12-19,76.6,66.6,57.2,67.5,61.4,52.0,92,84,72,30.12,29.90,13,4,23,0.00
2013-12-20,84.4,67.3,0.0,78.0,69.9,66.6,95,76,65,30.09,29.80,7,4,13,8.19
2013-12-21,84.4,84.4,84.4,71.3,71.3,71.3,65,65,65,30.18,29.79,6,6,11,0.00
2013-12-22,84.4,84.4,84.4,71.3,71.3,71.3,65,65,65,29.90,29.90,6,6,11,0.00
2013-12-23,84.4,84.4,84.4,71.3,71.3,71.3,65,65,65,29.90,29.90,6,6,11,0.00
2013-12-24,84.4,84.4,84.4,71.3,71.3,71.3,65,65,65,29.90,29.90,6,6,11,0.00
2013-12-25,58.6,50.5,42.6,49.5,43.6,37.2,90,77,67,30.64,30.57,7,2,15,0.00
2013-12-26,60.1,54.2,46.6,47.1,41.9,35.5,86,64,44,30.68,30.58,6,1,10,0.00
2013-12-27,57.2,52.8,50.5,44.4,39.0,35.3,75,60,54,30.70,30.58,6,2,11,0.00
2013-12-28,57.9,51.0,43.5,39.4,36.7,33.1,81,59,44,30.59,30.05,9,1,13,0.00
2013-12-29,65.3,52.5,43.0,48.5,41.1,37.6,82,67,41,30.17,30.01,6,1,13,0.00
2013-12-30,55.0,45.1,43.2,47.3,36.2,33.4,76,64,10,30.41,30.14,8,1,14,0.00
2013-12-31,50.5,45.7,42.1,40.7,35.8,32.0,74,68,61,30.46,30.29,9,2,15,0.00
2014-1-1,65.3,55.7,47.8,57.0,50.0,40.0,88,81,74,30.30,30.03,4,1,8,0.00
2014-1-2,59.4,49.9,41.9,57.3,36.7,24.7,93,63,34,30.45,30.06,14,3,29,0.00